Terminal Aerodrome Forecast
Issued by NWS Louisville, KY

Home | Current Version | Previous Version | Text Only | Print | Product List | Glossary On
Versions: 1 2 3 4 5 6 7 8 9 10 11 12 13 14 15
587
FTUS43 KLMK 300419 AAA
TAFBWG
TAF AMD
KBWG 300419Z 3004/3024 VRB04KT P6SM -SHRA OVC030
     FM300600 22010KT 4SM -SHRA VCTS BKN020CB
     FM301200 23005KT 5SM BR VCSH SCT006 BKN012
     FM302100 23012KT P6SM SCT012 BKN035=

USA.gov is the U.S. government's official web portal to all federal, state and local government web resources and services.